ホノルル の空港の天気 - METARとTAF

ホノルル国際空港 ( PHNL / HNL ) - アメリカ ハワイ州ホノルル
飛行場実況気象(Metar)
観測時間07/22 07:53 HST (07/22 17:53 UTC)
風向・風速北東 5m/s
視程10km以上
天気現象
少しの雲 雲底高度 850m
全天の4割程度の雲 雲底高度 1460m
全天の8割程度の雲 雲底高度 2290m
全天の8割程度の雲 雲底高度 4270m
気温26.7℃
湿度69%
気圧1015.2hPa
METARPHNL 221753Z 05009KT 10SM FEW028 SCT048 BKN075 BKN140 27/21 A2998 RMK AO2 SLP152 VCSH N-E T02670206 10267 20244 53013
過去の天気等 Google飛行場航空写真 Wunderground天気予報

過去48時間のMETAR

飛行場予報(TAF)
発表時間: 7/22 07:43 HST (7/22 17:43 UTC)
予報対象時間: 22日8時 HST ~ 23日14時 HST
風向・風速北東 5m/s
視程10km以上
全天の4割程度の雲 雲底高度 760m
全天の8割程度の雲 雲底高度 1520m
22日10時 HST から
風向・風速北東 8m/s 瞬間風速 11m/s
視程10km以上
少しの雲 雲底高度 760m
全天の4割程度の雲 雲底高度 1370m
22日20時 HST から
風向・風速東北東 5m/s
視程10km以上
全天の4割程度の雲 雲底高度 760m
全天の8割程度の雲 雲底高度 1520m
PHNL 221743Z 2218/2324 04009KT P6SM SCT025 BKN050
FM222000 05015G21KT P6SM FEW025 SCT045
FM230600 06010KT P6SM SCT025 BKN050